Time;durP1;ratioP1;P1;durP2;ratioP2;P2;SDS_P1;SDS_P2;PMS_P1;PMS_P2;Temp;Humidity;BMP_temperature;BMP_pressure;BME280_temperature;BME280_humidity;BME280_pressure;Samples;Min_cycle;Max_cycle;Signal;HPM_P1;HPM_P2
2022/05/17 00:02:17;;;;;;;3.95;3.67;;;;;;;;;;6554726;22;20024;-60
2022/05/17 00:04:47;;;;;;;3.97;3.78;;;;;;;;;;6554565;22;20065;-64
2022/05/17 00:07:17;;;;;;;3.60;3.47;;;;;;;;;;6556868;22;20026;-60
2022/05/17 00:09:48;;;;;;;4.00;3.80;;;;;;;;;;6554776;22;20005;-60
2022/05/17 00:12:18;;;;;;;6.53;4.20;;;;;;;;;;6554920;22;19991;-60
2022/05/17 00:14:48;;;;;;;4.75;4.50;;;;;;;;;;6554148;22;19994;-59
2022/05/17 00:17:19;;;;;;;5.85;5.18;;;;;;;;;;6555171;22;20002;-60
2022/05/17 00:19:49;;;;;;;4.35;4.20;;;;;;;;;;6554789;22;20017;-59
2022/05/17 00:22:20;;;;;;;4.55;4.22;;;;;;;;;;6554605;22;20002;-60
2022/05/17 00:24:50;;;;;;;6.20;5.55;;;;;;;;;;6555653;22;20485;-60
2022/05/17 00:27:20;;;;;;;8.68;5.55;;;;;;;;;;6556788;22;20325;-60
2022/05/17 00:29:51;;;;;;;5.35;5.03;;;;;;;;;;6554933;22;19999;-60
2022/05/17 00:32:21;;;;;;;6.32;5.13;;;;;;;;;;6554800;22;20286;-60
2022/05/17 00:34:52;;;;;;;6.60;4.97;;;;;;;;;;6554249;22;20055;-60
2022/05/17 00:37:22;;;;;;;5.15;3.95;;;;;;;;;;6554235;22;20015;-59
2022/05/17 00:39:52;;;;;;;6.82;5.80;;;;;;;;;;6554995;22;20380;-59
2022/05/17 00:42:22;;;;;;;5.18;4.65;;;;;;;;;;6554634;22;20002;-60
2022/05/17 00:44:53;;;;;;;4.53;4.25;;;;;;;;;;6554044;22;20048;-60
2022/05/17 00:47:25;;;;;;;5.00;4.70;;;;;;;;;;6554581;22;20448;-61
2022/05/17 00:50:04;;;;;;;7.82;3.78;;;;;;;;;;6554495;22;20439;-60
2022/05/17 00:52:44;;;;;;;4.15;3.88;;;;;;;;;;6554490;22;20026;-60
2022/05/17 00:55:14;;;;;;;;;;;;;;;;;;6554579;22;20373;-60
2022/05/17 00:57:46;;;;;;;4.45;4.05;;;;;;;;;;6554562;22;19902;-60
2022/05/17 01:00:19;;;;;;;5.60;4.15;;;;;;;;;;6553788;22;19999;-59
2022/05/17 01:02:51;;;;;;;12.27;4.90;;;;;;;;;;6554054;22;20002;-60
2022/05/17 01:05:23;;;;;;;5.82;5.03;;;;;;;;;;6555260;22;20337;-60
2022/05/17 01:07:55;;;;;;;7.70;4.60;;;;;;;;;;6554115;22;20005;-60
2022/05/17 01:10:26;;;;;;;4.90;4.50;;;;;;;;;;6555928;22;20003;-61
2022/05/17 01:15:46;;;;;;;7.78;5.50;;;;;;;;;;6555590;22;20509;-60
2022/05/17 01:18:17;;;;;;;4.90;4.32;;;;;;;;;;6554459;22;20003;-65
2022/05/17 01:20:47;;;;;;;3.75;3.58;;;;;;;;;;6554058;22;19999;-60
2022/05/17 01:23:17;;;;;;;5.43;3.90;;;;;;;;;;6554010;22;20007;-59
2022/05/17 01:25:48;;;;;;;7.00;4.50;;;;;;;;;;6554085;22;20022;-59
2022/05/17 01:28:18;;;;;;;4.50;4.20;;;;;;;;;;6554229;22;20332;-60
2022/05/17 01:30:49;;;;;;;5.65;5.25;;;;;;;;;;6553940;22;19999;-60
2022/05/17 01:33:20;;;;;;;4.75;4.35;;;;;;;;;;6553824;22;20034;-60
2022/05/17 01:35:50;;;;;;;4.97;4.47;;;;;;;;;;6554147;22;20005;-59
2022/05/17 01:38:21;;;;;;;8.00;3.45;;;;;;;;;;6554238;22;20429;-60
2022/05/17 01:40:51;;;;;;;6.53;3.65;;;;;;;;;;6556027;22;19995;-60
2022/05/17 01:43:21;;;;;;;4.88;4.25;;;;;;;;;;6552497;22;20545;-59
2022/05/17 01:45:52;;;;;;;4.57;4.22;;;;;;;;;;6553807;22;20005;-60
2022/05/17 01:48:22;;;;;;;3.63;3.42;;;;;;;;;;6554066;22;20002;-59
2022/05/17 01:50:53;;;;;;;4.30;3.83;;;;;;;;;;6553846;22;20052;-60
2022/05/17 01:53:23;;;;;;;3.42;3.22;;;;;;;;;;6553598;22;20005;-60
2022/05/17 01:55:53;;;;;;;3.45;3.05;;;;;;;;;;6553837;22;20322;-60
2022/05/17 01:58:23;;;;;;;5.28;4.88;;;;;;;;;;6553980;22;20002;-59
2022/05/17 02:00:54;;;;;;;4.47;3.97;;;;;;;;;;6554299;22;20077;-60
2022/05/17 02:03:25;;;;;;;17.65;5.40;;;;;;;;;;6553644;22;20077;-60
2022/05/17 02:05:55;;;;;;;5.35;4.32;;;;;;;;;;6554076;22;20048;-59
2022/05/17 02:08:26;;;;;;;4.78;4.38;;;;;;;;;;6553816;22;20083;-60
2022/05/17 02:10:56;;;;;;;5.75;4.63;;;;;;;;;;6553840;22;20375;-60
2022/05/17 02:13:26;;;;;;;6.68;5.22;;;;;;;;;;6556059;22;19999;-60
2022/05/17 02:15:57;;;;;;;4.75;4.40;;;;;;;;;;6555663;22;20011;-63
2022/05/17 02:18:27;;;;;;;8.60;5.03;;;;;;;;;;6556370;22;20085;-60
2022/05/17 02:20:57;;;;;;;6.97;4.30;;;;;;;;;;6556168;22;20367;-59
2022/05/17 02:23:28;;;;;;;5.00;4.35;;;;;;;;;;6555610;22;20022;-59
2022/05/17 02:25:58;;;;;;;4.07;3.80;;;;;;;;;;6556110;22;20002;-60
2022/05/17 02:28:28;;;;;;;4.53;4.13;;;;;;;;;;6556093;22;20006;-59
2022/05/17 02:30:58;;;;;;;6.10;4.60;;;;;;;;;;6558017;22;20510;-60
2022/05/17 02:33:29;;;;;;;4.25;3.85;;;;;;;;;;6555554;22;20040;-60
2022/05/17 02:35:59;;;;;;;6.43;4.43;;;;;;;;;;6554616;22;20002;-60
2022/05/17 02:38:29;;;;;;;12.52;5.13;;;;;;;;;;6556139;22;20281;-59
2022/05/17 02:40:59;;;;;;;5.40;4.80;;;;;;;;;;6555689;22;20009;-60
2022/05/17 02:43:30;;;;;;;4.00;3.80;;;;;;;;;;6555290;22;20460;-60
2022/05/17 02:46:00;;;;;;;5.90;4.38;;;;;;;;;;6554693;22;20014;-60
2022/05/17 02:48:30;;;;;;;6.05;4.50;;;;;;;;;;6555071;22;19995;-60
2022/05/17 02:51:11;;;;;;;4.43;3.38;;;;;;;;;;6555329;22;19999;-59
2022/05/17 02:53:42;;;;;;;4.75;4.25;;;;;;;;;;6556778;22;20053;-60
2022/05/17 02:56:12;;;;;;;3.90;3.72;;;;;;;;;;6555363;22;20436;-59
2022/05/17 02:58:43;;;;;;;4.50;4.30;;;;;;;;;;6555795;22;20002;-61
2022/05/17 03:01:13;;;;;;;5.15;4.68;;;;;;;;;;6555599;22;20052;-60
2022/05/17 03:03:44;;;;;;;4.75;4.25;;;;;;;;;;6555081;22;20002;-60
2022/05/17 03:06:14;;;;;;;8.60;4.65;;;;;;;;;;6555175;22;19999;-60
2022/05/17 03:08:44;;;;;;;4.10;3.75;;;;;;;;;;6555365;22;19999;-60
2022/05/17 03:11:15;;;;;;;4.43;4.03;;;;;;;;;;6555398;22;20425;-60
2022/05/17 03:13:45;;;;;;;5.28;4.80;;;;;;;;;;6555458;22;20086;-59
2022/05/17 03:16:16;;;;;;;4.60;4.25;;;;;;;;;;6555166;22;20411;-60
2022/05/17 03:18:47;;;;;;;7.75;5.95;;;;;;;;;;6555814;22;20048;-59
2022/05/17 03:21:17;;;;;;;4.70;4.40;;;;;;;;;;6554704;22;19995;-59
2022/05/17 03:23:47;;;;;;;5.60;4.88;;;;;;;;;;6554180;22;20003;-60
2022/05/17 03:26:18;;;;;;;4.28;4.07;;;;;;;;;;6556936;22;19994;-60
2022/05/17 03:28:48;;;;;;;5.57;5.07;;;;;;;;;;6529200;22;19999;-59
2022/05/17 03:31:19;;;;;;;4.78;4.43;;;;;;;;;;6554938;22;20070;-59
2022/05/17 03:33:49;;;;;;;5.95;4.43;;;;;;;;;;6554668;22;19999;-59
2022/05/17 03:36:19;;;;;;;4.57;4.28;;;;;;;;;;6555028;22;19999;-61
2022/05/17 03:38:50;;;;;;;8.73;4.47;;;;;;;;;;6554849;22;20337;-60
2022/05/17 03:41:20;;;;;;;4.65;4.35;;;;;;;;;;6554995;22;19998;-60
2022/05/17 03:43:51;;;;;;;4.60;4.05;;;;;;;;;;6554375;22;20010;-60
2022/05/17 03:46:22;;;;;;;7.22;3.70;;;;;;;;;;6554937;22;19990;-60
2022/05/17 03:48:52;;;;;;;6.70;4.80;;;;;;;;;;6555107;22;20033;-60
2022/05/17 03:51:23;;;;;;;6.07;4.40;;;;;;;;;;6554866;22;19991;-59
2022/05/17 03:53:53;;;;;;;4.05;3.80;;;;;;;;;;6554519;22;20002;-60
2022/05/17 03:56:23;;;;;;;8.40;4.10;;;;;;;;;;6555113;22;20038;-59
2022/05/17 03:58:54;;;;;;;5.00;4.60;;;;;;;;;;6554943;22;20006;-59
2022/05/17 04:01:24;;;;;;;6.22;3.95;;;;;;;;;;6555027;22;20034;-60
2022/05/17 04:03:54;;;;;;;6.05;5.47;;;;;;;;;;6554424;22;19995;-63
2022/05/17 04:06:25;;;;;;;9.98;4.80;;;;;;;;;;6556489;22;19991;-61
2022/05/17 04:08:55;;;;;;;5.70;5.25;;;;;;;;;;6555002;22;20005;-61
2022/05/17 04:11:25;;;;;;;7.32;5.07;;;;;;;;;;6554852;22;20505;-61
2022/05/17 04:13:56;;;;;;;7.45;5.43;;;;;;;;;;6553842;22;20063;-60
2022/05/17 04:16:29;;;;;;;7.75;6.18;;;;;;;;;;6540013;22;20011;-81
2022/05/17 04:19:00;;;;;;;10.23;5.70;;;;;;;;;;6534020;22;20003;-82
2022/05/17 04:21:31;;;;;;;8.10;4.68;;;;;;;;;;6534807;22;20461;-82
2022/05/17 04:24:01;;;;;;;6.53;6.05;;;;;;;;;;6534730;22;19999;-82
2022/05/17 04:26:31;;;;;;;5.25;4.85;;;;;;;;;;6534895;22;19999;-82
2022/05/17 04:29:02;;;;;;;6.83;4.73;;;;;;;;;;6563296;22;20010;-81
2022/05/17 04:31:33;;;;;;;4.97;4.68;;;;;;;;;;6536188;22;20225;-82
2022/05/17 04:34:03;;;;;;;4.82;4.53;;;;;;;;;;6534817;22;20009;-82
2022/05/17 04:36:34;;;;;;;14.23;5.83;;;;;;;;;;6563466;22;20415;-83
2022/05/17 04:39:04;;;;;;;6.63;5.47;;;;;;;;;;6562951;22;20232;-83
2022/05/17 04:41:34;;;;;;;6.47;5.85;;;;;;;;;;6563453;22;20292;-83
2022/05/17 04:44:04;;;;;;;5.28;4.88;;;;;;;;;;6561785;22;20051;-83
2022/05/17 04:46:35;;;;;;;4.93;4.40;;;;;;;;;;6562355;22;20338;-83
2022/05/17 04:49:07;;;;;;;5.80;4.97;;;;;;;;;;6534491;22;20260;-83
2022/05/17 04:51:38;;;;;;;8.10;5.80;;;;;;;;;;6562208;22;19995;-83
2022/05/17 04:54:08;;;;;;;6.38;5.45;;;;;;;;;;6532936;22;19998;-83
2022/05/17 04:56:38;;;;;;;4.57;4.28;;;;;;;;;;6532511;22;19999;-83
2022/05/17 04:59:08;;;;;;;10.10;5.23;;;;;;;;;;6560684;22;20003;-83
2022/05/17 05:01:38;;;;;;;6.80;6.30;;;;;;;;;;6560020;22;20225;-83
2022/05/17 05:04:09;;;;;;;6.93;5.90;;;;;;;;;;6533374;22;20241;-82
2022/05/17 05:06:39;;;;;;;8.30;5.70;;;;;;;;;;6561772;22;20422;-81
2022/05/17 05:09:13;;;;;;;7.45;6.85;;;;;;;;;;6531616;22;20233;-82
2022/05/17 05:11:43;;;;;;;6.35;5.85;;;;;;;;;;6564196;22;20007;-82
2022/05/17 05:14:13;;;;;;;5.57;5.18;;;;;;;;;;6534399;22;19998;-82
2022/05/17 05:16:44;;;;;;;7.78;6.85;;;;;;;;;;6560428;22;20473;-82
2022/05/17 05:19:14;;;;;;;6.30;5.80;;;;;;;;;;6561099;22;20018;-82
2022/05/17 05:21:44;;;;;;;6.53;5.97;;;;;;;;;;6533336;22;20376;-82
2022/05/17 05:24:14;;;;;;;6.80;6.13;;;;;;;;;;6560285;22;20375;-82
2022/05/17 05:26:45;;;;;;;8.83;7.27;;;;;;;;;;6533026;22;20454;-84
2022/05/17 05:29:16;;;;;;;8.23;7.57;;;;;;;;;;6561076;22;20220;-84
2022/05/17 05:31:46;;;;;;;6.97;6.28;;;;;;;;;;6564439;22;20684;-82
2022/05/17 05:34:16;;;;;;;11.85;7.38;;;;;;;;;;6533792;22;20006;-82
2022/05/17 05:36:46;;;;;;;6.83;6.43;;;;;;;;;;6563122;22;20048;-83
2022/05/17 05:39:21;;;;;;;7.85;7.05;;;;;;;;;;6536500;22;20283;-83
2022/05/17 05:41:56;;;;;;;5.93;5.53;;;;;;;;;;6564547;22;19998;-83
2022/05/17 05:44:26;;;;;;;6.45;6.00;;;;;;;;;;6535133;22;20503;-83
2022/05/17 05:46:56;;;;;;;12.75;5.88;;;;;;;;;;6561643;22;19994;-82
2022/05/17 05:49:26;;;;;;;7.55;6.95;;;;;;;;;;6534318;22;20074;-83
2022/05/17 05:51:57;;;;;;;7.97;7.38;;;;;;;;;;6560669;22;20044;-82
2022/05/17 05:54:27;;;;;;;8.55;5.53;;;;;;;;;;6560598;22;19995;-82
2022/05/17 05:57:00;;;;;;;7.60;6.90;;;;;;;;;;6560539;22;19991;-83
2022/05/17 05:59:31;;;;;;;6.88;6.40;;;;;;;;;;6559392;22;19999;-82
2022/05/17 06:02:02;;;;;;;5.75;5.32;;;;;;;;;;6558555;22;20018;-83
2022/05/17 06:04:33;;;;;;;6.15;5.65;;;;;;;;;;6558363;22;20394;-83
2022/05/17 06:07:03;;;;;;;5.97;5.30;;;;;;;;;;6559728;22;20082;-83
2022/05/17 06:09:34;;;;;;;6.18;5.85;;;;;;;;;;6531237;22;20002;-82
2022/05/17 06:12:04;;;;;;;11.57;7.40;;;;;;;;;;6559432;22;19995;-82
2022/05/17 06:14:34;;;;;;;22.75;9.02;;;;;;;;;;6531953;22;20229;-83
2022/05/17 06:17:05;;;;;;;12.23;6.77;;;;;;;;;;6559827;22;20010;-82
2022/05/17 06:19:36;;;;;;;9.35;8.55;;;;;;;;;;6533759;22;20247;-84
2022/05/17 06:22:06;;;;;;;9.13;7.00;;;;;;;;;;6540287;22;19999;-81
2022/05/17 06:24:36;;;;;;;8.80;8.03;;;;;;;;;;6533043;22;19999;-82
2022/05/17 06:27:07;;;;;;;13.27;8.70;;;;;;;;;;6530983;22;20233;-82
2022/05/17 06:29:38;;;;;;;8.98;8.15;;;;;;;;;;6531424;22;20457;-82
2022/05/17 06:32:09;;;;;;;8.65;7.75;;;;;;;;;;6532291;22;19995;-82
2022/05/17 06:34:39;;;;;;;12.40;9.82;;;;;;;;;;6532003;22;20415;-83
2022/05/17 06:37:09;;;;;;;12.30;10.18;;;;;;;;;;6533048;22;20007;-83
2022/05/17 06:39:40;;;;;;;10.20;9.23;;;;;;;;;;6562622;22;20066;-82
2022/05/17 06:42:10;;;;;;;20.25;9.40;;;;;;;;;;6534547;22;20236;-82
2022/05/17 06:44:41;;;;;;;8.33;7.70;;;;;;;;;;6559941;22;19991;-82
2022/05/17 06:47:11;;;;;;;9.52;7.30;;;;;;;;;;6555617;22;20225;-82
2022/05/17 06:49:41;;;;;;;8.50;7.13;;;;;;;;;;6557122;22;20132;-83
2022/05/17 06:52:12;;;;;;;8.60;7.78;;;;;;;;;;6557238;22;20003;-83
2022/05/17 06:54:43;;;;;;;31.95;9.93;;;;;;;;;;6555973;22;20334;-82
2022/05/17 06:57:14;;;;;;;7.32;6.53;;;;;;;;;;6528350;22;20434;-83
2022/05/17 06:59:45;;;;;;;9.60;6.68;;;;;;;;;;6529886;22;20002;-83
2022/05/17 07:02:15;;;;;;;15.20;8.38;;;;;;;;;;6557384;22;20438;-82
2022/05/17 07:04:46;;;;;;;11.98;8.18;;;;;;;;;;6557790;22;20033;-82
2022/05/17 07:07:16;;;;;;;11.97;7.23;;;;;;;;;;6562113;22;19998;-82
2022/05/17 07:13:07;;;;;;;11.57;7.90;;;;;;;;;;6561456;22;20213;-82
2022/05/17 07:15:25;;;;;;;9.73;7.13;;;;;;;;;;6558958;22;20014;-85
2022/05/17 07:17:57;;;;;;;9.40;8.48;;;;;;;;;;6533763;22;20007;-84
2022/05/17 07:20:28;;;;;;;13.25;7.30;;;;;;;;;;6538049;22;20397;-84
2022/05/17 07:22:58;;;;;;;7.70;7.00;;;;;;;;;;6539675;22;20089;-85
2022/05/17 07:25:32;;;;;;;12.63;8.20;;;;;;;;;;6566299;22;20556;-85
2022/05/17 07:28:02;;;;;;;7.82;7.10;;;;;;;;;;6538862;22;20229;-85
2022/05/17 07:30:33;;;;;;;11.10;8.23;;;;;;;;;;6564440;22;20043;-85
2022/05/17 07:33:03;;;;;;;9.82;6.97;;;;;;;;;;6536985;22;20488;-85
2022/05/17 07:35:33;;;;;;;9.60;7.07;;;;;;;;;;6536409;22;20052;-84
2022/05/17 07:38:06;;;;;;;17.77;9.67;;;;;;;;;;6536404;22;19994;-84
2022/05/17 07:40:36;;;;;;;6.45;6.03;;;;;;;;;;6561715;22;20235;-83
2022/05/17 07:43:07;;;;;;;9.07;6.57;;;;;;;;;;6563445;22;19994;-83
2022/05/17 07:45:37;;;;;;;5.77;4.90;;;;;;;;;;6563199;22;19995;-83
2022/05/17 07:48:07;;;;;;;10.82;8.07;;;;;;;;;;6535448;22;20225;-83
2022/05/17 07:50:37;;;;;;;9.85;8.52;;;;;;;;;;6562734;22;19998;-83
2022/05/17 07:53:09;;;;;;;9.30;8.52;;;;;;;;;;6536167;22;20081;-83
2022/05/17 07:55:39;;;;;;;9.85;9.07;;;;;;;;;;6534781;22;19999;-84
2022/05/17 07:58:10;;;;;;;10.57;7.53;;;;;;;;;;6534508;22;20436;-83
2022/05/17 08:00:43;;;;;;;23.48;9.95;;;;;;;;;;6535043;22;20006;-83
2022/05/17 08:03:16;;;;;;;28.73;9.70;;;;;;;;;;6562414;22;20265;-83
2022/05/17 08:05:46;;;;;;;13.85;9.40;;;;;;;;;;6535925;22;19995;-84
2022/05/17 08:08:16;;;;;;;12.07;8.83;;;;;;;;;;6564638;22;20330;-84
2022/05/17 08:10:47;;;;;;;20.80;10.10;;;;;;;;;;6564369;22;20277;-84
2022/05/17 08:13:18;;;;;;;9.05;8.15;;;;;;;;;;6537550;22;20572;-84
2022/05/17 08:15:49;;;;;;;8.73;7.90;;;;;;;;;;6541984;22;20010;-83
2022/05/17 08:18:19;;;;;;;7.93;7.28;;;;;;;;;;6544530;22;19994;-83
2022/05/17 08:20:49;;;;;;;12.63;7.72;;;;;;;;;;6543144;22;20028;-83
2022/05/17 08:23:20;;;;;;;16.25;8.45;;;;;;;;;;6566262;22;20026;-84
2022/05/17 08:28:39;;;;;;;12.45;7.88;;;;;;;;;;6563309;22;20005;-83
2022/05/17 08:31:10;;;;;;;9.35;7.25;;;;;;;;;;6536079;22;19999;-84
2022/05/17 08:33:40;;;;;;;15.02;7.15;;;;;;;;;;6536549;22;20060;-83
2022/05/17 08:36:11;;;;;;;10.57;6.68;;;;;;;;;;6565677;22;20075;-83
2022/05/17 08:38:42;;;;;;;21.00;7.88;;;;;;;;;;6572744;22;20005;-83
2022/05/17 08:41:19;;;;;;;10.10;7.53;;;;;;;;;;6573137;22;20381;-83
2022/05/17 08:43:50;;;;;;;19.30;8.15;;;;;;;;;;6563029;22;20025;-83
2022/05/17 08:46:38;;;;;;;13.13;7.70;;;;;;;;;;6562583;22;20400;-83
2022/05/17 08:49:29;;;;;;;12.50;9.73;;;;;;;;;;6563317;22;20304;-83
2022/05/17 08:52:02;;;;;;;13.75;8.40;;;;;;;;;;6563316;22;20572;-83
2022/05/17 08:54:40;;;;;;;6.78;5.90;;;;;;;;;;6563213;22;20388;-83
2022/05/17 08:57:26;;;;;;;12.07;8.50;;;;;;;;;;6536176;22;20007;-83
2022/05/17 09:00:03;;;;;;;7.70;6.72;;;;;;;;;;6535174;22;20022;-84
2022/05/17 09:02:38;;;;;;;8.23;7.53;;;;;;;;;;6535847;22;20342;-83
2022/05/17 09:05:08;;;;;;;10.68;6.70;;;;;;;;;;6564218;22;20006;-83
2022/05/17 09:07:57;;;;;;;13.70;7.40;;;;;;;;;;6563603;22;19999;-84
2022/05/17 09:10:33;;;;;;;7.87;7.20;;;;;;;;;;6535831;22;20002;-84
2022/05/17 09:13:28;;;;;;;10.30;7.35;;;;;;;;;;6563831;22;20252;-84
2022/05/17 09:15:59;;;;;;;9.82;7.03;;;;;;;;;;6563795;22;20026;-83
2022/05/17 09:18:30;;;;;;;7.53;6.85;;;;;;;;;;6565044;22;19998;-84
2022/05/17 09:21:00;;;;;;;14.13;7.03;;;;;;;;;;6538294;22;20048;-84
2022/05/17 09:23:30;;;;;;;8.33;6.63;;;;;;;;;;6565079;22;20037;-84
2022/05/17 09:26:04;;;;;;;12.02;7.60;;;;;;;;;;6564510;22;20245;-84
2022/05/17 09:28:49;;;;;;;8.18;7.53;;;;;;;;;;6536635;22;20006;-84
2022/05/17 09:31:22;;;;;;;11.40;7.22;;;;;;;;;;6565236;22;20466;-84
2022/05/17 09:33:53;;;;;;;7.07;6.45;;;;;;;;;;6538412;22;19999;-84
2022/05/17 09:36:28;;;;;;;9.43;8.18;;;;;;;;;;6537613;22;20002;-84
2022/05/17 09:38:59;;;;;;;12.05;9.35;;;;;;;;;;6565842;22;20342;-84
2022/05/17 09:41:34;;;;;;;13.07;8.52;;;;;;;;;;6565635;22;20030;-84
2022/05/17 09:44:08;;;;;;;11.48;8.23;;;;;;;;;;6564398;22;20002;-84
2022/05/17 09:46:43;;;;;;;17.63;7.45;;;;;;;;;;6565482;22;20362;-84
2022/05/17 09:55:27;;;;;;;7.30;6.82;;;;;;;;;;6545289;22;19999;-84
2022/05/17 09:57:57;;;;;;;7.43;5.70;;;;;;;;;;6564925;22;19995;-84
2022/05/17 10:00:41;;;;;;;6.30;5.65;;;;;;;;;;6566053;22;20312;-84
2022/05/17 10:03:29;;;;;;;8.55;5.40;;;;;;;;;;6537256;22;20010;-85
2022/05/17 10:06:01;;;;;;;4.80;4.47;;;;;;;;;;6537207;22;19990;-84
2022/05/17 10:08:37;;;;;;;4.45;4.13;;;;;;;;;;6539548;22;20300;-84
2022/05/17 10:11:13;;;;;;;8.45;4.40;;;;;;;;;;6561595;22;20044;-86
2022/05/17 10:13:46;;;;;;;7.88;4.03;;;;;;;;;;6557809;22;19995;-84
2022/05/17 10:16:27;;;;;;;3.08;2.88;;;;;;;;;;6543097;22;20034;-62
2022/05/17 10:19:05;;;;;;;3.65;2.97;;;;;;;;;;6495047;22;20102;-62
2022/05/17 10:21:52;;;;;;;4.95;3.03;;;;;;;;;;6494337;22;19991;-62
2022/05/17 10:24:44;;;;;;;4.25;3.53;;;;;;;;;;6495297;22;20422;-61
2022/05/17 10:27:14;;;;;;;2.42;2.33;;;;;;;;;;6495835;22;20087;-61
2022/05/17 10:29:48;;;;;;;2.30;2.17;;;;;;;;;;6495959;22;20028;-62
2022/05/17 10:32:24;;;;;;;3.00;2.80;;;;;;;;;;6496212;22;19995;-62
2022/05/17 10:34:59;;;;;;;3.15;2.83;;;;;;;;;;6525225;22;20045;-62
2022/05/17 10:37:38;;;;;;;5.20;2.40;;;;;;;;;;6525841;22;19996;-60
2022/05/17 10:40:11;;;;;;;4.55;3.25;;;;;;;;;;6497779;22;20006;-61
2022/05/17 10:42:43;;;;;;;3.17;2.97;;;;;;;;;;6498040;22;20017;-62
2022/05/17 10:45:18;;;;;;;9.13;3.85;;;;;;;;;;6496865;22;20041;-60
2022/05/17 10:47:58;;;;;;;3.53;3.33;;;;;;;;;;6497171;22;20009;-61
2022/05/17 10:50:34;;;;;;;5.20;4.88;;;;;;;;;;6497002;22;19995;-60
2022/05/17 10:53:06;;;;;;;4.13;3.72;;;;;;;;;;6497927;22;20425;-60
2022/05/17 10:55:39;;;;;;;10.30;5.32;;;;;;;;;;6497156;22;19999;-61
2022/05/17 10:58:19;;;;;;;4.20;3.40;;;;;;;;;;6497726;22;20004;-61
2022/05/17 11:00:58;;;;;;;3.45;3.20;;;;;;;;;;6497277;22;19999;-60
2022/05/17 11:03:28;;;;;;;3.00;2.67;;;;;;;;;;6497706;22;20010;-61
2022/05/17 11:06:02;;;;;;;4.07;3.75;;;;;;;;;;6497399;22;20349;-61
2022/05/17 11:08:35;;;;;;;3.22;2.92;;;;;;;;;;6497727;22;20286;-62
2022/05/17 11:11:24;;;;;;;4.20;4.00;;;;;;;;;;6498062;22;19995;-61
2022/05/17 11:13:55;;;;;;;;;;;;;;;;;;6498820;22;20026;-61
2022/05/17 11:16:31;;;;;;;7.15;5.18;;;;;;;;;;6491609;22;19943;-62
2022/05/17 11:19:16;;;;;;;12.68;4.35;;;;;;;;;;6470955;22;20007;-62
2022/05/17 11:21:49;;;;;;;5.35;3.75;;;;;;;;;;6470617;22;20369;-60
2022/05/17 11:24:22;;;;;;;7.38;4.47;;;;;;;;;;6468332;22;20397;-62
2022/05/17 11:26:57;;;;;;;6.97;5.53;;;;;;;;;;6468492;22;20349;-61
2022/05/17 11:29:46;;;;;;;4.72;4.40;;;;;;;;;;6468838;22;20002;-60
2022/05/17 11:32:16;;;;;;;;;;;;;;;;;;6470033;22;19996;-62
2022/05/17 11:34:46;;;;;;;5.40;3.78;;;;;;;;;;6467941;22;19953;-62
2022/05/17 11:37:32;;;;;;;4.88;4.38;;;;;;;;;;6465628;22;20194;-62
2022/05/17 11:40:04;;;;;;;7.28;5.18;;;;;;;;;;6465193;22;20007;-61
2022/05/17 11:42:36;;;;;;;10.43;5.78;;;;;;;;;;6464993;22;20345;-63
2022/05/17 11:45:20;;;;;;;6.43;5.93;;;;;;;;;;6464864;22;20004;-62
2022/05/17 11:47:57;;;;;;;4.93;4.50;;;;;;;;;;6491728;22;19991;-64
2022/05/17 11:50:28;;;;;;;4.75;4.45;;;;;;;;;;6465010;22;19996;-59
2022/05/17 11:53:17;;;;;;;3.80;3.50;;;;;;;;;;6465300;22;20008;-60
2022/05/17 11:56:06;;;;;;;13.82;6.18;;;;;;;;;;6491975;22;20023;-61
2022/05/17 11:58:36;;;;;;;5.75;5.13;;;;;;;;;;6492121;22;19992;-61
2022/05/17 12:01:25;;;;;;;4.82;4.43;;;;;;;;;;6465150;22;20000;-62
2022/05/17 12:03:55;;;;;;;;;;;;;;;;;;6465950;22;20003;-62
2022/05/17 12:06:41;;;;;;;3.30;2.77;;;;;;;;;;6465588;22;19915;-62
2022/05/17 12:09:13;;;;;;;6.65;3.88;;;;;;;;;;6466521;22;20305;-63
2022/05/17 12:11:46;;;;;;;6.38;4.30;;;;;;;;;;6494096;22;19996;-60
2022/05/17 12:14:21;;;;;;;4.63;4.25;;;;;;;;;;6466696;22;20022;-61
2022/05/17 12:16:55;;;;;;;7.50;4.20;;;;;;;;;;6493969;22;20007;-62
2022/05/17 12:19:29;;;;;;;4.70;4.30;;;;;;;;;;6467964;22;20086;-61
2022/05/17 12:22:12;;;;;;;5.35;4.82;;;;;;;;;;6495015;22;20053;-61
2022/05/17 12:24:45;;;;;;;7.63;3.72;;;;;;;;;;6466505;22;20007;-64
2022/05/17 12:27:15;;;;;;;6.28;4.28;;;;;;;;;;6465950;22;20003;-59
2022/05/17 12:32:43;;;;;;;7.13;4.70;;;;;;;;;;6490996;22;20030;-62
2022/05/17 12:35:21;;;;;;;3.50;3.13;;;;;;;;;;6465224;22;19999;-60
2022/05/17 12:37:52;;;;;;;7.53;4.53;;;;;;;;;;6492775;22;20033;-62
2022/05/17 12:43:31;;;;;;;3.50;3.30;;;;;;;;;;6492460;22;20056;-60
2022/05/17 12:46:10;;;;;;;3.60;3.30;;;;;;;;;;6464684;22;19995;-63
2022/05/17 12:48:42;;;;;;;3.55;3.28;;;;;;;;;;6464920;22;20015;-59
2022/05/17 12:51:12;;;;;;;4.88;4.47;;;;;;;;;;6465101;22;19999;-60
2022/05/17 12:53:44;;;;;;;9.02;5.30;;;;;;;;;;6465237;22;20078;-61
2022/05/17 12:56:20;;;;;;;3.42;3.22;;;;;;;;;;6464275;22;20313;-62
2022/05/17 12:58:59;;;;;;;5.35;3.25;;;;;;;;;;6492222;22;20006;-61
2022/05/17 13:01:30;;;;;;;3.60;3.35;;;;;;;;;;6464678;22;20387;-60
2022/05/17 13:04:09;;;;;;;6.47;4.50;;;;;;;;;;6492397;22;20010;-63
2022/05/17 13:06:42;;;;;;;4.00;2.85;;;;;;;;;;6464565;22;20070;-63
2022/05/17 13:09:15;;;;;;;5.55;2.47;;;;;;;;;;6464110;22;19999;-60
2022/05/17 13:11:45;;;;;;;3.63;3.28;;;;;;;;;;6464360;22;20430;-61
2022/05/17 13:14:27;;;;;;;2.88;2.78;;;;;;;;;;6465143;22;20027;-61
2022/05/17 13:17:21;;;;;;;3.83;3.20;;;;;;;;;;6477070;22;20338;-61
2022/05/17 13:19:56;;;;;;;3.80;3.58;;;;;;;;;;6470034;22;20010;-59
2022/05/17 13:22:27;;;;;;;10.30;3.80;;;;;;;;;;6489814;22;20090;-62
2022/05/17 13:25:03;;;;;;;3.10;2.97;;;;;;;;;;6489259;22;20387;-60
2022/05/17 13:27:38;;;;;;;3.60;3.10;;;;;;;;;;6489668;22;20442;-61
2022/05/17 13:30:21;;;;;;;4.35;3.08;;;;;;;;;;6489193;22;20425;-63
2022/05/17 13:32:54;;;;;;;2.22;2.13;;;;;;;;;;6489231;22;19995;-61
2022/05/17 13:35:26;;;;;;;3.60;2.03;;;;;;;;;;6488756;22;20000;-63
2022/05/17 13:37:59;;;;;;;2.22;2.05;;;;;;;;;;6462779;22;19999;-60
2022/05/17 13:40:33;;;;;;;2.67;2.58;;;;;;;;;;6488611;22;20014;-62
2022/05/17 13:43:17;;;;;;;1.60;1.50;;;;;;;;;;6488273;22;19999;-60
2022/05/17 13:45:59;;;;;;;12.20;3.85;;;;;;;;;;6487980;22;20056;-60
2022/05/17 13:48:30;;;;;;;2.17;2.03;;;;;;;;;;6486574;22;19999;-62
2022/05/17 13:51:01;;;;;;;1.95;1.85;;;;;;;;;;6488060;22;20027;-62
2022/05/17 13:53:33;;;;;;;1.95;1.75;;;;;;;;;;6487748;22;20006;-62
2022/05/17 13:56:04;;;;;;;1.00;1.00;;;;;;;;;;6488160;22;20007;-63
2022/05/17 13:58:35;;;;;;;2.40;2.20;;;;;;;;;;6488508;22;20003;-63
2022/05/17 14:01:32;;;;;;;7.05;4.00;;;;;;;;;;6488934;22;19995;-60
2022/05/17 14:04:22;;;;;;;2.72;2.53;;;;;;;;;;6480881;22;20386;-62
2022/05/17 14:07:01;;;;;;;6.72;1.13;;;;;;;;;;6464412;22;20069;-61
2022/05/17 14:12:21;;;;;;;0.93;0.93;;;;;;;;;;6493651;22;20460;-60
2022/05/17 14:14:51;;;;;;;1.17;1.10;;;;;;;;;;6493566;22;20027;-61
2022/05/17 14:17:26;;;;;;;4.73;2.23;;;;;;;;;;6491759;22;20007;-62
2022/05/17 14:19:57;;;;;;;3.30;1.23;;;;;;;;;;6492994;22;20321;-62
2022/05/17 14:22:31;;;;;;;1.92;1.38;;;;;;;;;;6494075;22;19999;-62
2022/05/17 14:28:01;;;;;;;9.35;2.35;;;;;;;;;;6501360;22;20030;-78
2022/05/17 14:30:32;;;;;;;2.17;1.97;;;;;;;;;;6474284;22;19992;-78
2022/05/17 14:33:03;;;;;;;4.05;1.10;;;;;;;;;;6502492;22;20210;-80
2022/05/17 14:35:36;;;;;;;6.38;1.10;;;;;;;;;;6506660;22;19995;-81
2022/05/17 14:38:07;;;;;;;6.07;1.15;;;;;;;;;;6505910;22;19992;-81
2022/05/17 14:40:37;;;;;;;3.00;1.67;;;;;;;;;;6534479;22;20394;-82
2022/05/17 14:43:08;;;;;;;2.03;1.17;;;;;;;;;;6539120;22;20002;-82
2022/05/17 14:45:38;;;;;;;5.40;1.50;;;;;;;;;;6538801;22;20014;-80
2022/05/17 14:48:09;;;;;;;3.47;0.80;;;;;;;;;;6542369;22;19996;-81
2022/05/17 14:50:39;;;;;;;2.85;1.17;;;;;;;;;;6508968;22;19987;-82
2022/05/17 14:53:09;;;;;;;2.47;1.85;;;;;;;;;;6540078;22;19995;-82
2022/05/17 14:55:40;;;;;;;2.93;1.47;;;;;;;;;;6536474;22;20087;-82
2022/05/17 14:58:10;;;;;;;1.02;1.02;;;;;;;;;;6549413;22;20003;-61
2022/05/17 15:00:40;;;;;;;2.07;1.23;;;;;;;;;;6531657;22;19998;-62
2022/05/17 15:03:17;;;;;;;3.80;3.05;;;;;;;;;;6557576;22;20221;-62
2022/05/17 15:05:48;;;;;;;2.20;1.05;;;;;;;;;;6556675;22;20034;-62
2022/05/17 15:08:18;;;;;;;3.50;0.85;;;;;;;;;;6556874;22;19995;-62
2022/05/17 15:10:49;;;;;;;1.98;1.13;;;;;;;;;;6557396;22;20069;-62
2022/05/17 15:13:20;;;;;;;5.20;1.33;;;;;;;;;;6556894;22;20001;-63
2022/05/17 15:15:53;;;;;;;4.15;1.30;;;;;;;;;;6556881;22;19998;-62
2022/05/17 15:18:24;;;;;;;1.65;0.80;;;;;;;;;;6556182;22;20056;-63
2022/05/17 15:20:56;;;;;;;1.10;1.00;;;;;;;;;;6554771;22;20016;-62
2022/05/17 15:23:28;;;;;;;3.97;1.02;;;;;;;;;;6555604;22;20072;-61
2022/05/17 15:25:59;;;;;;;3.53;1.65;;;;;;;;;;6555103;22;20005;-62
2022/05/17 15:28:30;;;;;;;1.30;1.20;;;;;;;;;;6555145;22;20396;-62
2022/05/17 15:31:01;;;;;;;1.05;0.98;;;;;;;;;;6555084;22;20034;-62
2022/05/17 15:33:32;;;;;;;1.73;1.60;;;;;;;;;;6556492;22;19994;-63
2022/05/17 15:36:03;;;;;;;6.63;1.38;;;;;;;;;;6555011;22;20003;-62
2022/05/17 15:38:36;;;;;;;3.97;1.00;;;;;;;;;;6554986;22;20104;-62
2022/05/17 15:41:07;;;;;;;0.93;0.90;;;;;;;;;;6555035;22;20009;-64
2022/05/17 15:43:37;;;;;;;1.95;1.20;;;;;;;;;;6554230;22;19998;-63